sensor_id;sensor_type;location;lat;lon;timestamp;P1;durP1;ratioP1;P2;durP2;ratioP2
16856;SDS011;8544;51.312;12.276;2022-08-19T00:02:00;802.23;;;535.40;;
16856;SDS011;8544;51.312;12.276;2022-08-19T00:04:30;672.73;;;466.57;;
16856;SDS011;8544;51.312;12.276;2022-08-19T00:07:02;650.63;;;471.87;;
16856;SDS011;8544;51.312;12.276;2022-08-19T00:09:32;590.23;;;440.00;;
16856;SDS011;8544;51.312;12.276;2022-08-19T00:12:06;707.53;;;507.93;;
16856;SDS011;8544;51.312;12.276;2022-08-19T00:14:35;942.70;;;621.47;;
16856;SDS011;8544;51.312;12.276;2022-08-19T00:17:05;827.67;;;514.53;;
16856;SDS011;8544;51.312;12.276;2022-08-19T00:19:35;1006.97;;;647.30;;
16856;SDS011;8544;51.312;12.276;2022-08-19T00:22:04;859.17;;;533.07;;
16856;SDS011;8544;51.312;12.276;2022-08-19T00:24:36;1033.60;;;643.30;;
16856;SDS011;8544;51.312;12.276;2022-08-19T00:27:06;898.60;;;566.00;;
16856;SDS011;8544;51.312;12.276;2022-08-19T00:29:52;854.37;;;539.53;;
16856;SDS011;8544;51.312;12.276;2022-08-19T00:32:20;788.43;;;573.23;;
16856;SDS011;8544;51.312;12.276;2022-08-19T00:34:53;968.67;;;644.07;;
16856;SDS011;8544;51.312;12.276;2022-08-19T00:37:21;1381.73;;;657.90;;
16856;SDS011;8544;51.312;12.276;2022-08-19T00:39:50;1027.00;;;604.60;;
16856;SDS011;8544;51.312;12.276;2022-08-19T00:42:22;842.13;;;524.90;;
16856;SDS011;8544;51.312;12.276;2022-08-19T00:44:53;937.27;;;601.47;;
16856;SDS011;8544;51.312;12.276;2022-08-19T00:47:24;1054.57;;;533.40;;
16856;SDS011;8544;51.312;12.276;2022-08-19T00:49:53;1063.03;;;661.80;;
16856;SDS011;8544;51.312;12.276;2022-08-19T00:52:25;1164.87;;;687.40;;
16856;SDS011;8544;51.312;12.276;2022-08-19T00:54:56;1291.00;;;500.63;;
16856;SDS011;8544;51.312;12.276;2022-08-19T00:57:28;1283.13;;;619.00;;
16856;SDS011;8544;51.312;12.276;2022-08-19T01:00:00;757.90;;;516.47;;
16856;SDS011;8544;51.312;12.276;2022-08-19T01:02:32;1052.93;;;613.10;;
16856;SDS011;8544;51.312;12.276;2022-08-19T01:05:02;1388.00;;;796.03;;
16856;SDS011;8544;51.312;12.276;2022-08-19T01:07:35;1207.03;;;704.20;;
16856;SDS011;8544;51.312;12.276;2022-08-19T01:10:37;1347.57;;;656.80;;
16856;SDS011;8544;51.312;12.276;2022-08-19T01:13:09;909.83;;;597.17;;
16856;SDS011;8544;51.312;12.276;2022-08-19T01:15:40;1304.50;;;655.63;;
16856;SDS011;8544;51.312;12.276;2022-08-19T01:18:13;1269.10;;;700.83;;
16856;SDS011;8544;51.312;12.276;2022-08-19T01:20:44;1058.77;;;658.33;;
16856;SDS011;8544;51.312;12.276;2022-08-19T01:23:16;1524.67;;;691.37;;
16856;SDS011;8544;51.312;12.276;2022-08-19T01:25:47;1468.77;;;571.77;;
16856;SDS011;8544;51.312;12.276;2022-08-19T01:28:19;1397.73;;;746.70;;
16856;SDS011;8544;51.312;12.276;2022-08-19T01:31:05;1036.53;;;644.33;;
16856;SDS011;8544;51.312;12.276;2022-08-19T01:33:34;1368.10;;;726.63;;
16856;SDS011;8544;51.312;12.276;2022-08-19T01:36:04;1680.10;;;558.30;;
16856;SDS011;8544;51.312;12.276;2022-08-19T01:38:36;1507.33;;;768.70;;
16856;SDS011;8544;51.312;12.276;2022-08-19T01:41:10;1094.40;;;392.70;;
16856;SDS011;8544;51.312;12.276;2022-08-19T01:43:39;1379.30;;;673.17;;
16856;SDS011;8544;51.312;12.276;2022-08-19T01:46:35;1507.17;;;616.47;;
16856;SDS011;8544;51.312;12.276;2022-08-19T01:49:10;1435.87;;;641.97;;
16856;SDS011;8544;51.312;12.276;2022-08-19T01:51:38;1205.77;;;394.60;;
16856;SDS011;8544;51.312;12.276;2022-08-19T01:54:15;1334.17;;;689.47;;
16856;SDS011;8544;51.312;12.276;2022-08-19T01:56:53;1823.60;;;598.33;;
16856;SDS011;8544;51.312;12.276;2022-08-19T01:59:26;1490.40;;;475.73;;
16856;SDS011;8544;51.312;12.276;2022-08-19T02:01:55;1100.10;;;667.20;;
16856;SDS011;8544;51.312;12.276;2022-08-19T02:04:26;1023.40;;;521.70;;
16856;SDS011;8544;51.312;12.276;2022-08-19T02:06:55;1638.70;;;751.40;;
16856;SDS011;8544;51.312;12.276;2022-08-19T02:09:28;1583.27;;;689.90;;
16856;SDS011;8544;51.312;12.276;2022-08-19T02:12:09;1490.70;;;725.47;;
16856;SDS011;8544;51.312;12.276;2022-08-19T02:14:38;1338.93;;;470.77;;
16856;SDS011;8544;51.312;12.276;2022-08-19T02:17:06;1535.90;;;770.90;;
16856;SDS011;8544;51.312;12.276;2022-08-19T02:19:45;1140.13;;;407.10;;
16856;SDS011;8544;51.312;12.276;2022-08-19T02:22:15;1276.43;;;604.67;;
16856;SDS011;8544;51.312;12.276;2022-08-19T02:24:46;1340.37;;;690.33;;
16856;SDS011;8544;51.312;12.276;2022-08-19T02:27:15;1152.60;;;756.73;;
16856;SDS011;8544;51.312;12.276;2022-08-19T02:29:45;1499.23;;;451.03;;
16856;SDS011;8544;51.312;12.276;2022-08-19T02:32:14;1650.50;;;518.40;;
16856;SDS011;8544;51.312;12.276;2022-08-19T02:34:43;1166.90;;;671.73;;
16856;SDS011;8544;51.312;12.276;2022-08-19T02:37:12;1289.70;;;485.73;;
16856;SDS011;8544;51.312;12.276;2022-08-19T02:39:56;1150.93;;;416.87;;
16856;SDS011;8544;51.312;12.276;2022-08-19T02:42:24;1493.47;;;678.60;;
16856;SDS011;8544;51.312;12.276;2022-08-19T02:44:53;1089.17;;;428.50;;
16856;SDS011;8544;51.312;12.276;2022-08-19T02:47:23;1281.23;;;577.43;;
16856;SDS011;8544;51.312;12.276;2022-08-19T02:49:51;1513.87;;;902.87;;
16856;SDS011;8544;51.312;12.276;2022-08-19T02:52:20;1520.40;;;773.80;;
16856;SDS011;8544;51.312;12.276;2022-08-19T02:54:50;1286.93;;;759.33;;
16856;SDS011;8544;51.312;12.276;2022-08-19T02:57:21;1053.47;;;582.90;;
16856;SDS011;8544;51.312;12.276;2022-08-19T02:59:49;1472.00;;;973.70;;
16856;SDS011;8544;51.312;12.276;2022-08-19T03:02:19;1382.60;;;834.63;;
16856;SDS011;8544;51.312;12.276;2022-08-19T03:05:02;1417.83;;;870.40;;
16856;SDS011;8544;51.312;12.276;2022-08-19T03:07:32;1070.73;;;761.77;;
16856;SDS011;8544;51.312;12.276;2022-08-19T03:10:00;1733.73;;;777.80;;
16856;SDS011;8544;51.312;12.276;2022-08-19T03:12:29;1227.63;;;594.50;;
16856;SDS011;8544;51.312;12.276;2022-08-19T03:14:58;1238.00;;;827.73;;
16856;SDS011;8544;51.312;12.276;2022-08-19T03:17:36;1280.00;;;851.43;;
16856;SDS011;8544;51.312;12.276;2022-08-19T03:20:05;1382.57;;;900.10;;
16856;SDS011;8544;51.312;12.276;2022-08-19T03:22:34;1171.83;;;661.17;;
16856;SDS011;8544;51.312;12.276;2022-08-19T03:25:05;1461.70;;;927.00;;
16856;SDS011;8544;51.312;12.276;2022-08-19T03:27:35;1391.57;;;879.40;;
16856;SDS011;8544;51.312;12.276;2022-08-19T03:30:14;1469.53;;;918.13;;
16856;SDS011;8544;51.312;12.276;2022-08-19T03:32:48;1552.00;;;906.90;;
16856;SDS011;8544;51.312;12.276;2022-08-19T03:35:22;1450.33;;;914.20;;
16856;SDS011;8544;51.312;12.276;2022-08-19T03:37:51;1605.97;;;983.90;;
16856;SDS011;8544;51.312;12.276;2022-08-19T03:40:19;1392.27;;;889.90;;
16856;SDS011;8544;51.312;12.276;2022-08-19T03:42:49;1455.70;;;888.97;;
16856;SDS011;8544;51.312;12.276;2022-08-19T03:45:21;1328.63;;;880.97;;
16856;SDS011;8544;51.312;12.276;2022-08-19T03:47:50;1454.50;;;942.37;;
16856;SDS011;8544;51.312;12.276;2022-08-19T03:50:19;1355.10;;;884.50;;
16856;SDS011;8544;51.312;12.276;2022-08-19T03:52:48;1391.20;;;878.17;;
16856;SDS011;8544;51.312;12.276;2022-08-19T03:55:18;1300.57;;;833.80;;
16856;SDS011;8544;51.312;12.276;2022-08-19T03:57:50;1260.07;;;835.87;;
16856;SDS011;8544;51.312;12.276;2022-08-19T04:00:24;1632.63;;;973.90;;
16856;SDS011;8544;51.312;12.276;2022-08-19T04:02:53;1310.77;;;798.47;;
16856;SDS011;8544;51.312;12.276;2022-08-19T04:05:26;1440.17;;;870.70;;
16856;SDS011;8544;51.312;12.276;2022-08-19T04:07:56;1453.00;;;910.60;;
16856;SDS011;8544;51.312;12.276;2022-08-19T04:10:26;1346.50;;;869.57;;
16856;SDS011;8544;51.312;12.276;2022-08-19T04:12:56;1475.03;;;956.87;;
16856;SDS011;8544;51.312;12.276;2022-08-19T04:15:24;1475.57;;;822.67;;
16856;SDS011;8544;51.312;12.276;2022-08-19T04:17:55;1255.07;;;855.57;;
16856;SDS011;8544;51.312;12.276;2022-08-19T04:20:25;1194.73;;;675.40;;
16856;SDS011;8544;51.312;12.276;2022-08-19T04:22:53;1573.70;;;973.33;;
16856;SDS011;8544;51.312;12.276;2022-08-19T04:25:21;1383.33;;;828.23;;
16856;SDS011;8544;51.312;12.276;2022-08-19T04:27:50;1429.40;;;906.47;;
16856;SDS011;8544;51.312;12.276;2022-08-19T04:30:22;1405.87;;;847.00;;
16856;SDS011;8544;51.312;12.276;2022-08-19T04:32:51;1461.87;;;832.80;;
16856;SDS011;8544;51.312;12.276;2022-08-19T04:35:22;1036.33;;;545.23;;
16856;SDS011;8544;51.312;12.276;2022-08-19T04:38:10;1385.00;;;880.30;;
16856;SDS011;8544;51.312;12.276;2022-08-19T04:40:40;1574.37;;;830.43;;
16856;SDS011;8544;51.312;12.276;2022-08-19T04:43:29;1157.80;;;673.90;;
16856;SDS011;8544;51.312;12.276;2022-08-19T04:46:05;1351.83;;;795.13;;
16856;SDS011;8544;51.312;12.276;2022-08-19T04:48:35;1419.97;;;745.50;;
16856;SDS011;8544;51.312;12.276;2022-08-19T04:51:14;1563.93;;;873.83;;
16856;SDS011;8544;51.312;12.276;2022-08-19T04:53:44;1305.30;;;833.30;;
16856;SDS011;8544;51.312;12.276;2022-08-19T04:56:13;1255.47;;;800.43;;
16856;SDS011;8544;51.312;12.276;2022-08-19T04:58:43;1535.77;;;916.00;;
16856;SDS011;8544;51.312;12.276;2022-08-19T05:01:35;1583.23;;;798.87;;
16856;SDS011;8544;51.312;12.276;2022-08-19T05:04:09;1542.67;;;829.30;;
16856;SDS011;8544;51.312;12.276;2022-08-19T05:06:38;1355.80;;;896.87;;
16856;SDS011;8544;51.312;12.276;2022-08-19T05:09:12;1413.10;;;844.50;;
16856;SDS011;8544;51.312;12.276;2022-08-19T05:11:40;1302.97;;;810.10;;
16856;SDS011;8544;51.312;12.276;2022-08-19T05:14:09;1225.90;;;673.53;;
16856;SDS011;8544;51.312;12.276;2022-08-19T05:16:45;1050.60;;;458.37;;
16856;SDS011;8544;51.312;12.276;2022-08-19T05:19:15;1682.87;;;847.10;;
16856;SDS011;8544;51.312;12.276;2022-08-19T05:22:00;1730.20;;;820.83;;
16856;SDS011;8544;51.312;12.276;2022-08-19T05:24:45;1189.53;;;760.03;;
16856;SDS011;8544;51.312;12.276;2022-08-19T05:27:35;1196.67;;;785.93;;
16856;SDS011;8544;51.312;12.276;2022-08-19T05:33:22;1189.47;;;807.97;;
16856;SDS011;8544;51.312;12.276;2022-08-19T05:36:08;1178.83;;;729.93;;
16856;SDS011;8544;51.312;12.276;2022-08-19T05:38:46;1434.87;;;900.20;;
16856;SDS011;8544;51.312;12.276;2022-08-19T05:41:16;1851.03;;;957.90;;
16856;SDS011;8544;51.312;12.276;2022-08-19T05:43:46;1502.77;;;924.20;;
16856;SDS011;8544;51.312;12.276;2022-08-19T05:46:16;1119.00;;;533.53;;
16856;SDS011;8544;51.312;12.276;2022-08-19T05:49:04;1322.47;;;866.93;;
16856;SDS011;8544;51.312;12.276;2022-08-19T05:51:48;1521.83;;;535.73;;
16856;SDS011;8544;51.312;12.276;2022-08-19T05:54:17;1422.73;;;787.70;;
16856;SDS011;8544;51.312;12.276;2022-08-19T05:56:48;1381.97;;;830.13;;
16856;SDS011;8544;51.312;12.276;2022-08-19T05:59:31;1041.37;;;623.60;;
16856;SDS011;8544;51.312;12.276;2022-08-19T06:02:00;1186.67;;;677.87;;
16856;SDS011;8544;51.312;12.276;2022-08-19T06:04:31;1178.07;;;742.23;;
16856;SDS011;8544;51.312;12.276;2022-08-19T06:07:06;1092.20;;;670.63;;
16856;SDS011;8544;51.312;12.276;2022-08-19T06:09:38;1434.47;;;660.97;;
16856;SDS011;8544;51.312;12.276;2022-08-19T06:12:28;1379.20;;;779.67;;
16856;SDS011;8544;51.312;12.276;2022-08-19T06:14:59;1330.20;;;833.20;;
16856;SDS011;8544;51.312;12.276;2022-08-19T06:17:28;1461.63;;;666.07;;
16856;SDS011;8544;51.312;12.276;2022-08-19T06:19:59;1346.10;;;703.13;;
16856;SDS011;8544;51.312;12.276;2022-08-19T06:22:44;1379.27;;;649.60;;
16856;SDS011;8544;51.312;12.276;2022-08-19T06:25:15;1025.77;;;579.50;;
16856;SDS011;8544;51.312;12.276;2022-08-19T06:27:44;1524.90;;;761.17;;
16856;SDS011;8544;51.312;12.276;2022-08-19T06:30:41;1523.50;;;564.07;;
16856;SDS011;8544;51.312;12.276;2022-08-19T06:33:15;1267.83;;;665.10;;
16856;SDS011;8544;51.312;12.276;2022-08-19T06:35:54;1396.43;;;605.23;;
16856;SDS011;8544;51.312;12.276;2022-08-19T06:38:22;1288.13;;;702.03;;
16856;SDS011;8544;51.312;12.276;2022-08-19T06:40:59;1000.00;;;391.33;;
16856;SDS011;8544;51.312;12.276;2022-08-19T06:43:33;1122.97;;;766.60;;
16856;SDS011;8544;51.312;12.276;2022-08-19T06:46:21;1247.77;;;716.90;;
16856;SDS011;8544;51.312;12.276;2022-08-19T06:48:52;1047.13;;;587.70;;
16856;SDS011;8544;51.312;12.276;2022-08-19T06:51:22;1338.63;;;738.70;;
16856;SDS011;8544;51.312;12.276;2022-08-19T06:54:04;1100.50;;;680.07;;
16856;SDS011;8544;51.312;12.276;2022-08-19T06:57:03;683.30;;;375.93;;
16856;SDS011;8544;51.312;12.276;2022-08-19T06:59:33;918.43;;;413.50;;
16856;SDS011;8544;51.312;12.276;2022-08-19T07:02:02;1137.80;;;583.47;;
16856;SDS011;8544;51.312;12.276;2022-08-19T07:04:33;1290.90;;;644.33;;
16856;SDS011;8544;51.312;12.276;2022-08-19T07:07:13;927.70;;;325.37;;
16856;SDS011;8544;51.312;12.276;2022-08-19T07:09:45;1259.63;;;643.10;;
16856;SDS011;8544;51.312;12.276;2022-08-19T07:12:25;1059.87;;;624.27;;
16856;SDS011;8544;51.312;12.276;2022-08-19T07:14:56;1159.00;;;736.00;;
16856;SDS011;8544;51.312;12.276;2022-08-19T07:17:26;1079.60;;;640.17;;
16856;SDS011;8544;51.312;12.276;2022-08-19T07:19:56;1080.30;;;696.07;;
16856;SDS011;8544;51.312;12.276;2022-08-19T07:22:32;878.23;;;516.67;;
16856;SDS011;8544;51.312;12.276;2022-08-19T07:25:00;564.33;;;301.80;;
16856;SDS011;8544;51.312;12.276;2022-08-19T07:27:30;952.80;;;586.17;;
16856;SDS011;8544;51.312;12.276;2022-08-19T07:29:59;708.77;;;405.97;;
16856;SDS011;8544;51.312;12.276;2022-08-19T07:32:27;1122.20;;;674.90;;
16856;SDS011;8544;51.312;12.276;2022-08-19T07:34:55;870.47;;;497.27;;
16856;SDS011;8544;51.312;12.276;2022-08-19T07:37:23;1631.60;;;785.90;;
16856;SDS011;8544;51.312;12.276;2022-08-19T07:39:59;1148.17;;;724.13;;
16856;SDS011;8544;51.312;12.276;2022-08-19T07:42:27;515.57;;;260.20;;
16856;SDS011;8544;51.312;12.276;2022-08-19T07:44:56;1658.67;;;827.87;;
16856;SDS011;8544;51.312;12.276;2022-08-19T07:47:24;662.30;;;331.10;;
16856;SDS011;8544;51.312;12.276;2022-08-19T07:50:14;1024.03;;;609.03;;
16856;SDS011;8544;51.312;12.276;2022-08-19T07:52:44;817.77;;;372.83;;
16856;SDS011;8544;51.312;12.276;2022-08-19T07:55:16;1064.20;;;502.73;;
16856;SDS011;8544;51.312;12.276;2022-08-19T07:58:09;1613.93;;;800.37;;
16856;SDS011;8544;51.312;12.276;2022-08-19T08:00:37;841.90;;;484.23;;
16856;SDS011;8544;51.312;12.276;2022-08-19T08:03:09;874.97;;;514.37;;
16856;SDS011;8544;51.312;12.276;2022-08-19T08:05:39;957.37;;;517.93;;
16856;SDS011;8544;51.312;12.276;2022-08-19T08:08:25;931.83;;;559.73;;
16856;SDS011;8544;51.312;12.276;2022-08-19T08:11:16;1266.17;;;681.37;;
16856;SDS011;8544;51.312;12.276;2022-08-19T08:13:54;1080.23;;;689.93;;
16856;SDS011;8544;51.312;12.276;2022-08-19T08:16:29;1219.20;;;725.17;;
16856;SDS011;8544;51.312;12.276;2022-08-19T08:18:59;868.17;;;527.03;;
16856;SDS011;8544;51.312;12.276;2022-08-19T08:21:32;1058.40;;;499.77;;
16856;SDS011;8544;51.312;12.276;2022-08-19T08:24:07;826.67;;;485.43;;
16856;SDS011;8544;51.312;12.276;2022-08-19T08:26:42;758.07;;;364.93;;
16856;SDS011;8544;51.312;12.276;2022-08-19T08:29:12;1542.47;;;747.23;;
16856;SDS011;8544;51.312;12.276;2022-08-19T08:31:40;1999.90;;;999.90;;
16856;SDS011;8544;51.312;12.276;2022-08-19T08:34:11;1985.60;;;818.97;;
16856;SDS011;8544;51.312;12.276;2022-08-19T08:36:41;1622.90;;;837.83;;
16856;SDS011;8544;51.312;12.276;2022-08-19T08:39:11;1999.90;;;999.90;;
16856;SDS011;8544;51.312;12.276;2022-08-19T08:41:44;1575.33;;;807.83;;
16856;SDS011;8544;51.312;12.276;2022-08-19T08:44:23;1542.47;;;749.33;;
16856;SDS011;8544;51.312;12.276;2022-08-19T08:47:02;791.80;;;338.37;;
16856;SDS011;8544;51.312;12.276;2022-08-19T08:49:36;1831.77;;;557.60;;
16856;SDS011;8544;51.312;12.276;2022-08-19T08:52:11;890.63;;;544.20;;
16856;SDS011;8544;51.312;12.276;2022-08-19T08:54:44;712.03;;;342.77;;
16856;SDS011;8544;51.312;12.276;2022-08-19T08:57:23;1999.90;;;999.90;;
16856;SDS011;8544;51.312;12.276;2022-08-19T09:00:08;1999.90;;;999.90;;
16856;SDS011;8544;51.312;12.276;2022-08-19T09:02:41;1720.53;;;873.80;;
16856;SDS011;8544;51.312;12.276;2022-08-19T09:05:09;1131.53;;;592.63;;
16856;SDS011;8544;51.312;12.276;2022-08-19T09:07:43;794.77;;;441.57;;
16856;SDS011;8544;51.312;12.276;2022-08-19T09:10:26;1616.60;;;794.53;;
16856;SDS011;8544;51.312;12.276;2022-08-19T09:13:03;1592.93;;;805.17;;
16856;SDS011;8544;51.312;12.276;2022-08-19T09:15:40;482.43;;;280.53;;
16856;SDS011;8544;51.312;12.276;2022-08-19T09:18:13;799.60;;;450.50;;
16856;SDS011;8544;51.312;12.276;2022-08-19T09:20:45;1050.33;;;495.17;;
16856;SDS011;8544;51.312;12.276;2022-08-19T09:23:14;1595.20;;;779.43;;
16856;SDS011;8544;51.312;12.276;2022-08-19T09:25:42;1550.30;;;774.47;;
16856;SDS011;8544;51.312;12.276;2022-08-19T09:28:11;1030.00;;;465.67;;
16856;SDS011;8544;51.312;12.276;2022-08-19T09:30:47;1999.90;;;999.90;;
16856;SDS011;8544;51.312;12.276;2022-08-19T09:33:18;1999.90;;;999.90;;
16856;SDS011;8544;51.312;12.276;2022-08-19T09:35:46;1999.90;;;999.90;;
16856;SDS011;8544;51.312;12.276;2022-08-19T09:38:18;1999.90;;;999.90;;
16856;SDS011;8544;51.312;12.276;2022-08-19T09:40:47;1999.90;;;999.90;;
16856;SDS011;8544;51.312;12.276;2022-08-19T09:43:17;1571.17;;;786.23;;
16856;SDS011;8544;51.312;12.276;2022-08-19T09:45:59;334.83;;;166.43;;
16856;SDS011;8544;51.312;12.276;2022-08-19T09:48:27;1569.63;;;824.97;;
16856;SDS011;8544;51.312;12.276;2022-08-19T09:51:01;1999.90;;;999.90;;
16856;SDS011;8544;51.312;12.276;2022-08-19T09:53:30;1999.90;;;999.90;;
16856;SDS011;8544;51.312;12.276;2022-08-19T09:55:59;1999.90;;;999.90;;
16856;SDS011;8544;51.312;12.276;2022-08-19T09:58:30;1289.27;;;507.40;;
16856;SDS011;8544;51.312;12.276;2022-08-19T10:00:59;1528.47;;;779.40;;
16856;SDS011;8544;51.312;12.276;2022-08-19T10:03:29;1026.33;;;437.23;;
16856;SDS011;8544;51.312;12.276;2022-08-19T10:05:59;1999.90;;;999.90;;
16856;SDS011;8544;51.312;12.276;2022-08-19T10:08:29;1999.90;;;999.90;;
16856;SDS011;8544;51.312;12.276;2022-08-19T10:10:59;1999.90;;;999.90;;
16856;SDS011;8544;51.312;12.276;2022-08-19T10:13:49;1999.90;;;999.90;;
16856;SDS011;8544;51.312;12.276;2022-08-19T10:16:20;1999.90;;;999.90;;
16856;SDS011;8544;51.312;12.276;2022-08-19T10:18:58;1999.90;;;999.90;;
16856;SDS011;8544;51.312;12.276;2022-08-19T10:21:31;1999.90;;;999.90;;
16856;SDS011;8544;51.312;12.276;2022-08-19T10:24:01;1999.90;;;999.90;;
16856;SDS011;8544;51.312;12.276;2022-08-19T10:26:32;1999.90;;;999.90;;
16856;SDS011;8544;51.312;12.276;2022-08-19T10:29:03;1999.90;;;999.90;;
16856;SDS011;8544;51.312;12.276;2022-08-19T10:31:34;905.60;;;427.77;;
16856;SDS011;8544;51.312;12.276;2022-08-19T10:34:26;693.67;;;246.43;;
16856;SDS011;8544;51.312;12.276;2022-08-19T10:36:56;1999.90;;;999.90;;
16856;SDS011;8544;51.312;12.276;2022-08-19T10:39:28;909.60;;;453.47;;
16856;SDS011;8544;51.312;12.276;2022-08-19T10:41:59;1999.90;;;999.90;;
16856;SDS011;8544;51.312;12.276;2022-08-19T10:44:28;1999.90;;;999.90;;
16856;SDS011;8544;51.312;12.276;2022-08-19T10:46:58;1999.90;;;999.90;;
16856;SDS011;8544;51.312;12.276;2022-08-19T10:49:26;1999.90;;;999.90;;
16856;SDS011;8544;51.312;12.276;2022-08-19T10:51:58;1603.00;;;749.03;;
16856;SDS011;8544;51.312;12.276;2022-08-19T10:55:01;1999.90;;;999.90;;
16856;SDS011;8544;51.312;12.276;2022-08-19T10:57:54;1999.90;;;999.90;;
16856;SDS011;8544;51.312;12.276;2022-08-19T11:00:29;1356.37;;;553.80;;
16856;SDS011;8544;51.312;12.276;2022-08-19T11:03:02;1999.90;;;999.90;;
16856;SDS011;8544;51.312;12.276;2022-08-19T11:05:38;1999.90;;;999.90;;
16856;SDS011;8544;51.312;12.276;2022-08-19T11:08:09;1999.90;;;999.90;;
16856;SDS011;8544;51.312;12.276;2022-08-19T11:10:49;1999.90;;;999.90;;
16856;SDS011;8544;51.312;12.276;2022-08-19T11:13:20;1999.90;;;999.90;;
16856;SDS011;8544;51.312;12.276;2022-08-19T11:15:56;1999.90;;;999.90;;
16856;SDS011;8544;51.312;12.276;2022-08-19T11:18:32;1999.90;;;999.90;;
16856;SDS011;8544;51.312;12.276;2022-08-19T11:21:12;1999.90;;;999.90;;
16856;SDS011;8544;51.312;12.276;2022-08-19T11:23:50;1999.90;;;999.90;;
16856;SDS011;8544;51.312;12.276;2022-08-19T11:26:23;1758.83;;;823.90;;
16856;SDS011;8544;51.312;12.276;2022-08-19T11:29:02;1270.73;;;412.77;;
16856;SDS011;8544;51.312;12.276;2022-08-19T11:34:27;1478.43;;;531.00;;
16856;SDS011;8544;51.312;12.276;2022-08-19T11:39:46;1094.93;;;891.57;;
16856;SDS011;8544;51.312;12.276;2022-08-19T11:42:22;1010.37;;;595.37;;
16856;SDS011;8544;51.312;12.276;2022-08-19T11:45:22;673.03;;;510.57;;
16856;SDS011;8544;51.312;12.276;2022-08-19T11:48:04;1026.87;;;653.27;;
16856;SDS011;8544;51.312;12.276;2022-08-19T11:50:32;247.90;;;222.93;;
16856;SDS011;8544;51.312;12.276;2022-08-19T11:53:18;767.77;;;532.63;;
16856;SDS011;8544;51.312;12.276;2022-08-19T11:56:06;91.87;;;82.90;;
16856;SDS011;8544;51.312;12.276;2022-08-19T11:58:39;427.03;;;261.87;;
16856;SDS011;8544;51.312;12.276;2022-08-19T12:01:14;1664.80;;;890.17;;
16856;SDS011;8544;51.312;12.276;2022-08-19T12:09:34;672.83;;;559.27;;
16856;SDS011;8544;51.312;12.276;2022-08-19T12:12:11;107.97;;;98.77;;
16856;SDS011;8544;51.312;12.276;2022-08-19T12:14:40;361.57;;;329.90;;
16856;SDS011;8544;51.312;12.276;2022-08-19T12:17:09;123.20;;;113.63;;
16856;SDS011;8544;51.312;12.276;2022-08-19T12:19:45;40.27;;;38.07;;
16856;SDS011;8544;51.312;12.276;2022-08-19T12:22:16;46.77;;;44.17;;
16856;SDS011;8544;51.312;12.276;2022-08-19T12:24:47;76.57;;;67.53;;
16856;SDS011;8544;51.312;12.276;2022-08-19T12:27:17;94.47;;;89.25;;
16856;SDS011;8544;51.312;12.276;2022-08-19T12:30:05;192.32;;;181.45;;
16856;SDS011;8544;51.312;12.276;2022-08-19T12:32:36;141.40;;;133.45;;
16856;SDS011;8544;51.312;12.276;2022-08-19T12:35:05;111.07;;;100.15;;
16856;SDS011;8544;51.312;12.276;2022-08-19T12:37:35;80.60;;;76.15;;
16856;SDS011;8544;51.312;12.276;2022-08-19T12:40:03;474.55;;;443.17;;
16856;SDS011;8544;51.312;12.276;2022-08-19T12:42:32;191.27;;;180.80;;
16856;SDS011;8544;51.312;12.276;2022-08-19T12:45:01;192.95;;;182.20;;
16856;SDS011;8544;51.312;12.276;2022-08-19T12:47:31;223.15;;;211.15;;
16856;SDS011;8544;51.312;12.276;2022-08-19T12:50:04;217.25;;;205.55;;
16856;SDS011;8544;51.312;12.276;2022-08-19T12:52:38;207.45;;;196.25;;
16856;SDS011;8544;51.312;12.276;2022-08-19T12:55:10;186.63;;;176.38;;
16856;SDS011;8544;51.312;12.276;2022-08-19T12:57:38;213.77;;;202.23;;
16856;SDS011;8544;51.312;12.276;2022-08-19T13:00:07;283.92;;;267.83;;
16856;SDS011;8544;51.312;12.276;2022-08-19T13:02:48;394.48;;;370.27;;
16856;SDS011;8544;51.312;12.276;2022-08-19T13:05:18;284.52;;;269.15;;
16856;SDS011;8544;51.312;12.276;2022-08-19T13:07:51;363.02;;;341.52;;
16856;SDS011;8544;51.312;12.276;2022-08-19T13:10:22;425.90;;;399.88;;
16856;SDS011;8544;51.312;12.276;2022-08-19T13:12:54;347.67;;;327.60;;
16856;SDS011;8544;51.312;12.276;2022-08-19T13:15:23;294.75;;;278.63;;
16856;SDS011;8544;51.312;12.276;2022-08-19T13:17:51;327.65;;;309.45;;
16856;SDS011;8544;51.312;12.276;2022-08-19T13:20:23;483.42;;;452.70;;
16856;SDS011;8544;51.312;12.276;2022-08-19T13:22:56;252.73;;;239.23;;
16856;SDS011;8544;51.312;12.276;2022-08-19T13:25:26;382.13;;;359.63;;
16856;SDS011;8544;51.312;12.276;2022-08-19T13:27:54;282.20;;;266.90;;
16856;SDS011;8544;51.312;12.276;2022-08-19T13:30:30;280.30;;;265.23;;
16856;SDS011;8544;51.312;12.276;2022-08-19T13:33:18;253.18;;;239.70;;
16856;SDS011;8544;51.312;12.276;2022-08-19T13:35:47;249.18;;;235.85;;
16856;SDS011;8544;51.312;12.276;2022-08-19T13:38:20;266.80;;;252.38;;
16856;SDS011;8544;51.312;12.276;2022-08-19T13:40:49;287.65;;;271.00;;
16856;SDS011;8544;51.312;12.276;2022-08-19T13:43:18;242.63;;;229.75;;
16856;SDS011;8544;51.312;12.276;2022-08-19T13:45:49;221.13;;;209.10;;
16856;SDS011;8544;51.312;12.276;2022-08-19T13:48:28;188.68;;;178.43;;
16856;SDS011;8544;51.312;12.276;2022-08-19T13:50:58;194.93;;;184.43;;
16856;SDS011;8544;51.312;12.276;2022-08-19T13:53:29;191.82;;;181.43;;
16856;SDS011;8544;51.312;12.276;2022-08-19T13:56:04;195.82;;;185.15;;
16856;SDS011;8544;51.312;12.276;2022-08-19T13:58:33;147.90;;;139.80;;
16856;SDS011;8544;51.312;12.276;2022-08-19T14:01:01;115.88;;;109.57;;
16856;SDS011;8544;51.312;12.276;2022-08-19T14:03:31;113.38;;;107.07;;
16856;SDS011;8544;51.312;12.276;2022-08-19T14:06:01;157.80;;;149.13;;
16856;SDS011;8544;51.312;12.276;2022-08-19T14:08:30;122.53;;;115.60;;
16856;SDS011;8544;51.312;12.276;2022-08-19T14:10:59;134.17;;;126.73;;
16856;SDS011;8544;51.312;12.276;2022-08-19T14:13:31;104.23;;;98.43;;
16856;SDS011;8544;51.312;12.276;2022-08-19T14:16:06;91.63;;;86.57;;
16856;SDS011;8544;51.312;12.276;2022-08-19T14:18:35;83.07;;;78.43;;
16856;SDS011;8544;51.312;12.276;2022-08-19T14:21:03;82.70;;;78.10;;
16856;SDS011;8544;51.312;12.276;2022-08-19T14:23:33;90.83;;;85.83;;
16856;SDS011;8544;51.312;12.276;2022-08-19T14:26:03;90.30;;;85.23;;
16856;SDS011;8544;51.312;12.276;2022-08-19T14:28:32;68.23;;;64.43;;
16856;SDS011;8544;51.312;12.276;2022-08-19T14:31:03;51.10;;;48.33;;
16856;SDS011;8544;51.312;12.276;2022-08-19T14:33:31;52.90;;;49.93;;
16856;SDS011;8544;51.312;12.276;2022-08-19T14:35:59;80.23;;;75.73;;
16856;SDS011;8544;51.312;12.276;2022-08-19T14:38:27;48.97;;;46.30;;